Time;durP1;ratioP1;P1;durP2;ratioP2;P2;SDS_P1;SDS_P2;PMS_P1;PMS_P2;Temp;Humidity;BMP_temperature;BMP_pressure;BME280_temperature;BME280_humidity;BME280_pressure;Samples;Min_cycle;Max_cycle;Signal;HPM_P1;HPM_P2
2023/06/17 00:00:55;;;;;;;26.10;19.30;;;17.20;99.90;;;;;;5057404;28;20222;-81
2023/06/17 00:03:22;;;;;;;27.30;20.70;;;17.20;99.90;;;;;;5040650;28;20556;-82
2023/06/17 00:05:49;;;;;;;26.57;20.60;;;17.20;99.90;;;;;;5056948;28;20214;-80
2023/06/17 00:08:16;;;;;;;27.07;20.03;;;17.20;99.90;;;;;;5056989;28;20750;-81
2023/06/17 00:10:44;;;;;;;26.73;20.90;;;17.20;99.90;;;;;;5083007;28;20298;-80
2023/06/17 00:13:19;;;;;;;27.63;20.43;;;17.20;99.90;;;;;;5094106;28;20292;-81
2023/06/17 00:15:50;;;;;;;28.90;20.87;;;17.20;99.90;;;;;;5093755;28;20205;-82
2023/06/17 00:18:19;;;;;;;27.87;20.90;;;17.20;99.90;;;;;;5077090;28;20197;-79
2023/06/17 00:20:48;;;;;;;27.10;20.80;;;17.10;99.90;;;;;;5093703;28;20228;-80
2023/06/17 00:23:15;;;;;;;26.87;20.47;;;17.10;99.90;;;;;;5093787;28;20272;-80
2023/06/17 00:25:42;;;;;;;28.83;21.47;;;17.10;99.90;;;;;;5093722;28;20249;-81
2023/06/17 00:28:09;;;;;;;25.53;20.50;;;17.10;99.90;;;;;;5093758;28;20249;-81
2023/06/17 00:30:36;;;;;;;25.77;20.17;;;17.00;99.90;;;;;;5094545;28;20216;-80
2023/06/17 00:33:03;;;;;;;28.43;21.03;;;16.90;99.90;;;;;;5093656;28;20293;-81
2023/06/17 00:35:30;;;;;;;27.07;20.97;;;17.00;99.90;;;;;;5093315;28;20290;-80
2023/06/17 00:37:57;;;;;;;26.93;21.10;;;17.00;99.90;;;;;;5093354;28;20302;-80
2023/06/17 00:40:25;;;;;;;27.40;21.10;;;16.90;99.90;;;;;;5094524;28;20209;-81
2023/06/17 00:42:52;;;;;;;28.53;21.73;;;17.00;99.90;;;;;;5093261;28;20190;-80
2023/06/17 00:45:19;;;;;;;27.57;20.73;;;16.90;99.90;;;;;;5093167;28;20245;-81
2023/06/17 00:47:46;;;;;;;27.37;21.27;;;16.90;99.90;;;;;;5094826;28;20684;-82
2023/06/17 00:50:15;;;;;;;26.90;20.67;;;16.90;99.90;;;;;;5093657;28;20586;-83
2023/06/17 00:52:45;;;;;;;22.87;17.70;;;16.80;99.90;;;;;;5076467;28;20247;-83
2023/06/17 00:55:12;;;;;;;22.67;17.70;;;16.80;99.90;;;;;;5093073;28;20220;-82
2023/06/17 00:57:39;;;;;;;22.37;16.03;;;16.80;99.90;;;;;;5093434;28;20300;-82
2023/06/17 01:00:10;;;;;;;19.37;15.03;;;16.80;99.90;;;;;;5094455;28;20209;-81
2023/06/17 01:02:43;;;;;;;18.93;14.63;;;16.70;99.90;;;;;;5092961;28;20780;-81
2023/06/17 01:05:14;;;;;;;18.40;13.63;;;16.70;99.90;;;;;;5092728;28;20221;-82
2023/06/17 01:07:52;;;;;;;17.10;12.80;;;16.60;99.90;;;;;;5092630;28;20220;-82
2023/06/17 01:10:59;;;;;;;19.00;12.57;;;16.50;99.90;;;;;;5082576;28;20225;-82
2023/06/17 01:13:29;;;;;;;16.00;12.97;;;16.50;99.90;;;;;;4972713;28;20186;-81
2023/06/17 01:15:56;;;;;;;15.10;12.33;;;16.40;99.90;;;;;;4972630;28;20690;-81
2023/06/17 01:18:24;;;;;;;16.87;12.60;;;16.40;99.90;;;;;;4956496;28;20205;-82
2023/06/17 01:20:53;;;;;;;16.03;13.13;;;16.30;99.90;;;;;;4972357;28;20272;-81
2023/06/17 01:23:24;;;;;;;16.03;12.40;;;16.30;99.90;;;;;;4972457;28;20271;-81
2023/06/17 01:25:52;;;;;;;16.30;12.47;;;16.20;99.90;;;;;;4956057;28;20588;-82
2023/06/17 01:28:20;;;;;;;15.93;11.97;;;16.30;99.90;;;;;;4956095;28;20704;-81
2023/06/17 01:30:54;;;;;;;14.00;11.80;;;16.20;99.90;;;;;;4956019;28;20224;-81
2023/06/17 01:33:22;;;;;;;16.67;11.87;;;16.20;99.90;;;;;;4972319;28;20227;-81
2023/06/17 01:35:59;;;;;;;17.53;12.43;;;16.20;99.90;;;;;;4955873;28;20272;-80
2023/06/17 01:38:56;;;;;;;16.90;12.17;;;16.20;99.90;;;;;;4972231;28;20224;-81
2023/06/17 01:41:27;;;;;;;14.07;11.63;;;16.10;99.90;;;;;;4971110;28;20222;-83
2023/06/17 01:43:56;;;;;;;13.87;11.23;;;16.10;99.90;;;;;;4972183;28;20201;-82
2023/06/17 01:46:26;;;;;;;14.20;11.47;;;16.10;99.90;;;;;;4948774;28;20241;-81
2023/06/17 01:48:54;;;;;;;12.73;10.83;;;16.00;99.90;;;;;;5055059;28;20287;-80
2023/06/17 01:51:21;;;;;;;12.63;10.43;;;16.00;99.90;;;;;;5038627;28;20603;-81
2023/06/17 01:53:50;;;;;;;12.73;9.87;;;15.90;99.90;;;;;;5055327;28;20292;-81
2023/06/17 01:56:17;;;;;;;12.83;10.10;;;15.90;99.90;;;;;;5054804;28;20697;-81
2023/06/17 01:58:44;;;;;;;12.80;9.70;;;15.90;99.90;;;;;;5054913;28;20194;-80
2023/06/17 02:01:11;;;;;;;12.53;9.47;;;15.80;99.90;;;;;;5055006;28;20240;-81
2023/06/17 02:03:42;;;;;;;12.70;9.30;;;15.80;99.90;;;;;;5072711;28;20743;-82
2023/06/17 02:06:09;;;;;;;10.97;9.07;;;15.70;99.90;;;;;;5072609;28;20260;-81
2023/06/17 02:08:37;;;;;;;11.23;9.00;;;15.60;99.90;;;;;;5072576;28;20291;-81
2023/06/17 02:11:04;;;;;;;11.43;8.57;;;15.60;99.90;;;;;;5069560;28;20240;-82
2023/06/17 02:13:31;;;;;;;11.67;9.00;;;15.60;99.90;;;;;;5092883;28;20269;-83
2023/06/17 02:15:58;;;;;;;11.20;8.80;;;15.60;99.90;;;;;;5092795;28;20205;-82
2023/06/17 02:18:25;;;;;;;11.97;8.73;;;15.60;99.90;;;;;;5092069;28;20242;-82
2023/06/17 02:20:52;;;;;;;12.27;9.33;;;15.60;99.90;;;;;;5092412;28;20227;-82
2023/06/17 02:23:19;;;;;;;12.37;8.77;;;15.50;99.90;;;;;;5093888;28;20229;-81
2023/06/17 02:25:46;;;;;;;12.13;9.10;;;15.50;99.90;;;;;;5075355;28;20209;-79
2023/06/17 02:28:13;;;;;;;12.67;9.10;;;15.60;99.90;;;;;;5091246;28;20216;-81
2023/06/17 02:30:40;;;;;;;12.87;9.00;;;15.60;99.90;;;;;;5091295;28;20209;-82
2023/06/17 02:33:07;;;;;;;11.73;9.30;;;15.60;99.90;;;;;;5091358;28;20194;-81
2023/06/17 02:35:35;;;;;;;11.67;8.70;;;15.60;99.90;;;;;;5091076;28;20270;-81
2023/06/17 02:38:02;;;;;;;11.47;8.67;;;15.60;99.90;;;;;;5074748;28;20641;-81
2023/06/17 02:40:29;;;;;;;12.67;8.90;;;15.60;99.90;;;;;;5091412;28;20239;-81
2023/06/17 02:42:56;;;;;;;10.43;8.10;;;15.60;99.90;;;;;;5091188;28;20185;-81
2023/06/17 02:45:23;;;;;;;12.00;8.40;;;15.50;99.90;;;;;;5074377;28;20206;-81
2023/06/17 02:47:50;;;;;;;10.83;8.40;;;15.50;99.90;;;;;;5092409;28;20243;-82
2023/06/17 02:50:20;;;;;;;10.60;8.57;;;15.50;99.90;;;;;;5091180;28;20217;-81
2023/06/17 02:52:47;;;;;;;10.10;8.17;;;15.50;99.90;;;;;;5092366;28;20188;-80
2023/06/17 02:55:15;;;;;;;10.10;8.23;;;15.50;99.90;;;;;;5094537;28;20247;-82
2023/06/17 02:57:42;;;;;;;9.90;7.90;;;15.50;99.90;;;;;;5095628;28;20209;-82
2023/06/17 03:00:10;;;;;;;9.97;7.60;;;15.40;99.90;;;;;;5078411;28;20248;-82
2023/06/17 03:02:37;;;;;;;10.87;7.47;;;15.50;99.90;;;;;;5096591;28;20615;-82
2023/06/17 03:05:06;;;;;;;8.00;6.60;;;15.50;99.90;;;;;;5095179;28;20217;-81
2023/06/17 03:07:36;;;;;;;9.53;6.77;;;15.50;99.90;;;;;;5078557;28;20676;-82
2023/06/17 03:10:03;;;;;;;9.00;6.97;;;15.50;99.90;;;;;;5095189;28;20252;-81
2023/06/17 03:12:30;;;;;;;9.27;6.53;;;15.60;99.90;;;;;;5095162;28;20233;-81
2023/06/17 03:14:57;;;;;;;8.37;6.73;;;15.60;99.90;;;;;;5096429;28;20213;-82
2023/06/17 03:17:24;;;;;;;8.97;7.07;;;15.60;99.90;;;;;;5096391;28;20243;-81
2023/06/17 03:19:51;;;;;;;9.07;7.03;;;15.60;99.90;;;;;;5077754;28;20213;-82
2023/06/17 03:22:18;;;;;;;8.67;6.27;;;15.50;99.90;;;;;;5096298;28;20453;-81
2023/06/17 03:24:46;;;;;;;9.13;6.70;;;15.50;99.90;;;;;;5096540;28;20220;-82
2023/06/17 03:27:13;;;;;;;10.00;6.20;;;15.50;99.90;;;;;;5094921;28;20275;-82
2023/06/17 03:29:40;;;;;;;8.57;6.60;;;15.60;99.90;;;;;;5095990;28;20262;-82
2023/06/17 03:32:07;;;;;;;9.07;6.57;;;15.50;99.90;;;;;;5078077;28;20204;-81
2023/06/17 03:34:34;;;;;;;8.43;6.10;;;15.50;99.90;;;;;;5094860;28;20705;-82
2023/06/17 03:37:01;;;;;;;7.10;5.97;;;15.50;99.90;;;;;;5077954;28;20556;-81
2023/06/17 03:39:28;;;;;;;7.20;6.00;;;15.60;99.90;;;;;;5094690;28;20197;-81
2023/06/17 03:41:55;;;;;;;8.33;6.33;;;15.50;99.90;;;;;;5094584;28;20675;-81
2023/06/17 03:44:22;;;;;;;7.10;6.07;;;15.60;99.90;;;;;;5096277;28;20269;-82
2023/06/17 03:46:48;;;;;;;7.13;6.03;;;15.60;99.90;;;;;;5078002;28;20292;-80
2023/06/17 03:49:15;;;;;;;11.43;6.07;;;15.50;99.90;;;;;;5094619;28;20293;-82
2023/06/17 03:51:42;;;;;;;9.50;6.20;;;15.50;99.90;;;;;;5095840;28;20274;-81
2023/06/17 03:54:10;;;;;;;6.23;5.40;;;15.50;99.90;;;;;;5094932;28;20193;-81
2023/06/17 03:56:37;;;;;;;9.77;6.07;;;15.30;99.90;;;;;;5094761;28;20231;-82
2023/06/17 03:59:03;;;;;;;8.60;5.73;;;15.30;99.90;;;;;;5096005;28;20186;-82
2023/06/17 04:01:31;;;;;;;7.93;6.07;;;15.30;99.90;;;;;;5094106;28;20206;-82
2023/06/17 04:03:58;;;;;;;8.67;6.47;;;15.20;99.90;;;;;;5093999;28;20594;-82
2023/06/17 04:06:25;;;;;;;7.07;5.77;;;15.20;99.90;;;;;;5095197;28;20205;-83
2023/06/17 04:08:53;;;;;;;12.87;6.27;;;15.20;99.90;;;;;;5094220;28;20283;-83
2023/06/17 04:11:20;;;;;;;8.60;6.10;;;15.30;99.90;;;;;;5077055;28;20229;-82
2023/06/17 04:13:47;;;;;;;7.97;6.30;;;15.40;99.90;;;;;;5093896;28;20201;-83
2023/06/17 04:16:15;;;;;;;7.67;6.50;;;15.50;99.90;;;;;;5093687;28;20680;-82
2023/06/17 04:18:42;;;;;;;9.80;6.40;;;15.40;99.90;;;;;;5093750;28;20204;-82
2023/06/17 04:21:09;;;;;;;8.50;6.60;;;15.40;99.90;;;;;;5093492;28;20213;-82
2023/06/17 04:23:36;;;;;;;9.97;6.93;;;15.60;99.90;;;;;;5095011;28;20182;-82
2023/06/17 04:26:03;;;;;;;8.77;6.90;;;15.60;99.90;;;;;;5094264;28;20296;-82
2023/06/17 04:28:31;;;;;;;9.37;7.13;;;15.70;99.90;;;;;;5093705;28;20684;-82
2023/06/17 04:31:02;;;;;;;11.07;7.63;;;15.80;99.90;;;;;;5093685;28;20217;-83
2023/06/17 04:33:30;;;;;;;12.77;7.57;;;15.80;99.90;;;;;;5094901;28;20677;-81
2023/06/17 04:35:58;;;;;;;11.17;8.00;;;15.90;99.90;;;;;;5093839;28;20221;-81
2023/06/17 04:38:24;;;;;;;10.33;7.83;;;16.00;99.90;;;;;;5094878;28;20182;-82
2023/06/17 04:40:54;;;;;;;12.03;8.47;;;15.90;99.90;;;;;;5093427;28;20309;-80
2023/06/17 04:43:22;;;;;;;12.73;7.70;;;15.80;99.90;;;;;;5093892;28;20217;-84
2023/06/17 04:45:51;;;;;;;11.00;9.03;;;15.80;99.90;;;;;;5093439;28;20223;-83
2023/06/17 04:48:19;;;;;;;11.13;8.40;;;15.90;99.90;;;;;;5093145;28;20213;-82
2023/06/17 04:50:47;;;;;;;9.53;7.97;;;15.80;99.90;;;;;;5076721;28;20259;-81
2023/06/17 04:53:14;;;;;;;11.57;8.10;;;15.90;99.90;;;;;;5093375;28;20198;-86
2023/06/17 04:55:43;;;;;;;11.37;8.27;;;16.00;99.90;;;;;;5076326;28;20217;-80
2023/06/17 04:58:09;;;;;;;11.53;8.70;;;16.10;99.90;;;;;;5094708;28;20565;-80
2023/06/17 05:00:36;;;;;;;11.47;9.20;;;16.20;99.90;;;;;;5094628;28;20222;-82
2023/06/17 05:03:03;;;;;;;11.97;9.33;;;16.20;99.90;;;;;;5076677;28;20197;-83
2023/06/17 05:05:30;;;;;;;14.93;9.27;;;16.20;99.90;;;;;;5092926;28;20240;-79
2023/06/17 05:07:58;;;;;;;11.23;9.30;;;16.40;99.90;;;;;;5093061;28;20276;-85
2023/06/17 05:10:25;;;;;;;12.27;9.90;;;16.40;99.90;;;;;;5076771;28;20327;-84
2023/06/17 05:12:52;;;;;;;11.60;8.60;;;16.50;99.90;;;;;;5093385;28;20193;-82
2023/06/17 05:15:18;;;;;;;14.77;9.40;;;16.50;99.90;;;;;;5093091;28;20213;-83
2023/06/17 05:17:45;;;;;;;13.33;9.30;;;16.60;99.90;;;;;;5091807;28;20615;-82
2023/06/17 05:20:13;;;;;;;12.30;9.50;;;16.70;99.90;;;;;;5076063;28;20217;-85
2023/06/17 05:22:40;;;;;;;13.67;9.53;;;16.70;99.90;;;;;;5092582;28;20237;-82
2023/06/17 05:25:07;;;;;;;11.43;9.20;;;16.70;99.90;;;;;;5075873;28;20244;-88
2023/06/17 05:27:34;;;;;;;13.77;10.03;;;16.90;99.90;;;;;;5075824;28;20605;-91
2023/06/17 05:30:01;;;;;;;13.83;9.30;;;17.10;99.90;;;;;;5075715;28;20226;-90
2023/06/17 05:32:28;;;;;;;11.37;8.93;;;17.20;99.90;;;;;;5076022;28;20198;-89
2023/06/17 05:34:55;;;;;;;13.67;9.73;;;17.40;99.90;;;;;;5076057;28;20270;-85
2023/06/17 05:37:21;;;;;;;13.90;9.83;;;17.40;99.90;;;;;;5092396;28;20284;-85
2023/06/17 05:39:48;;;;;;;19.77;12.47;;;17.40;99.90;;;;;;5092669;28;20217;-85
2023/06/17 05:42:15;;;;;;;14.70;10.80;;;17.50;99.90;;;;;;5092424;28;20494;-85
2023/06/17 05:44:43;;;;;;;14.37;9.90;;;17.50;99.90;;;;;;5093793;28;20308;-83
2023/06/17 05:47:10;;;;;;;14.27;10.40;;;17.40;99.90;;;;;;5075370;28;20675;-85
2023/06/17 05:49:37;;;;;;;14.67;10.70;;;17.50;99.90;;;;;;5093763;28;20213;-86
2023/06/17 05:52:04;;;;;;;16.03;10.13;;;17.60;99.90;;;;;;5075220;28;20574;-85
2023/06/17 05:54:31;;;;;;;15.47;10.50;;;17.80;99.90;;;;;;5091898;28;20189;-87
2023/06/17 05:56:58;;;;;;;13.10;10.00;;;18.00;99.90;;;;;;5091962;28;20313;-88
2023/06/17 05:59:28;;;;;;;12.73;9.63;;;18.20;99.90;;;;;;5093188;28;20191;-84
2023/06/17 06:01:55;;;;;;;12.43;8.73;;;18.30;99.90;;;;;;5093168;28;20177;-88
2023/06/17 06:04:23;;;;;;;12.20;8.80;;;18.40;99.90;;;;;;5091998;28;20236;-86
2023/06/17 06:06:50;;;;;;;8.73;7.83;;;18.40;99.90;;;;;;5093020;28;20302;-88
2023/06/17 06:09:17;;;;;;;12.03;8.60;;;18.40;99.90;;;;;;5088738;28;20261;-87
2023/06/17 06:11:44;;;;;;;10.90;8.73;;;18.40;99.90;;;;;;5054607;28;20701;-87
2023/06/17 06:14:12;;;;;;;10.83;8.50;;;18.50;99.90;;;;;;5054517;28;20646;-87
2023/06/17 06:16:40;;;;;;;9.53;7.90;;;18.60;99.90;;;;;;5073534;28;20564;-88
2023/06/17 06:19:07;;;;;;;10.73;8.70;;;18.70;99.90;;;;;;5056735;28;20244;-88
2023/06/17 06:21:34;;;;;;;9.63;7.80;;;18.70;99.90;;;;;;5057081;28;20255;-87
2023/06/17 06:24:01;;;;;;;10.73;8.30;;;18.80;99.90;;;;;;5057038;28;20190;-87
2023/06/17 06:26:28;;;;;;;10.67;7.87;;;19.00;99.90;;;;;;5056807;28;20206;-87
2023/06/17 06:28:55;;;;;;;11.30;8.30;;;19.20;99.90;;;;;;5056705;28;20685;-87
2023/06/17 06:31:22;;;;;;;10.67;8.33;;;19.40;99.90;;;;;;5055287;28;20214;-87
2023/06/17 06:33:49;;;;;;;9.40;8.07;;;19.40;99.90;;;;;;5054264;28;20590;-88
2023/06/17 06:36:16;;;;;;;9.70;8.07;;;19.40;99.90;;;;;;5054346;28;20260;-85
2023/06/17 06:38:43;;;;;;;9.37;7.80;;;19.40;99.90;;;;;;5037439;28;20304;-88
2023/06/17 06:41:10;;;;;;;10.93;7.97;;;19.40;99.90;;;;;;5037636;28;20559;-87
2023/06/17 06:43:37;;;;;;;11.00;7.63;;;19.50;99.90;;;;;;5054267;28;20638;-87
2023/06/17 06:46:04;;;;;;;10.63;7.97;;;19.70;99.90;;;;;;5053872;28;20637;-87
2023/06/17 06:48:31;;;;;;;8.40;7.47;;;19.80;99.90;;;;;;5054105;28;20322;-87
2023/06/17 06:50:58;;;;;;;10.10;7.93;;;19.80;99.90;;;;;;5054403;28;20682;-85
2023/06/17 06:53:25;;;;;;;9.03;8.03;;;19.90;99.90;;;;;;5072030;28;20186;-87
2023/06/17 06:55:52;;;;;;;8.90;7.60;;;19.70;99.90;;;;;;5054313;28;20238;-87
2023/06/17 06:58:19;;;;;;;8.27;7.43;;;19.60;99.90;;;;;;5054227;28;20202;-86
2023/06/17 07:00:46;;;;;;;9.17;7.63;;;19.60;99.90;;;;;;5072064;28;20202;-86
2023/06/17 07:03:13;;;;;;;9.20;7.53;;;19.80;99.90;;;;;;5054335;28;20198;-86
2023/06/17 07:05:40;;;;;;;8.53;7.07;;;19.80;99.90;;;;;;5054365;28;20343;-85
2023/06/17 07:08:07;;;;;;;7.77;6.80;;;20.10;99.90;;;;;;5037555;28;20198;-86
2023/06/17 07:10:39;;;;;;;8.10;6.87;;;20.20;99.90;;;;;;5077059;28;20281;-86
2023/06/17 07:13:08;;;;;;;9.43;6.83;;;20.30;99.90;;;;;;5091289;28;20539;-85
2023/06/17 07:15:35;;;;;;;8.17;6.80;;;20.40;99.90;;;;;;5074528;28;20221;-86
2023/06/17 07:18:02;;;;;;;7.67;6.87;;;20.50;99.90;;;;;;5090925;28;20194;-85
2023/06/17 07:20:29;;;;;;;8.37;6.83;;;20.60;99.90;;;;;;5091143;28;20308;-85
2023/06/17 07:22:56;;;;;;;9.37;6.93;;;20.60;99.90;;;;;;5090812;28;20186;-84
2023/06/17 07:25:25;;;;;;;10.47;6.83;;;20.70;99.90;;;;;;5091065;28;20279;-85
2023/06/17 07:27:56;;;;;;;8.77;7.10;;;20.90;99.90;;;;;;5092075;28;20601;-85
2023/06/17 07:30:23;;;;;;;8.33;6.87;;;20.80;99.90;;;;;;5090730;28;20701;-84
2023/06/17 07:32:50;;;;;;;8.33;7.00;;;20.90;99.90;;;;;;5090708;28;20649;-86
2023/06/17 07:35:18;;;;;;;7.27;6.40;;;21.10;99.90;;;;;;5090503;28;20223;-86
2023/06/17 07:37:45;;;;;;;8.17;6.53;;;21.20;99.90;;;;;;5091985;28;20260;-86
2023/06/17 07:40:12;;;;;;;8.03;6.60;;;21.30;99.90;;;;;;5076280;28;20758;-86
2023/06/17 07:42:43;;;;;;;8.93;7.00;;;21.30;99.90;;;;;;5098446;28;20223;-87
2023/06/17 07:45:11;;;;;;;45.37;11.47;;;21.10;99.90;;;;;;5098613;28;20218;-85
2023/06/17 07:47:38;;;;;;;9.67;6.33;;;21.10;99.90;;;;;;5100246;28;20217;-85
2023/06/17 07:50:07;;;;;;;7.10;6.40;;;21.20;99.90;;;;;;5081370;28;20271;-85
2023/06/17 07:52:35;;;;;;;7.57;6.67;;;21.40;99.90;;;;;;5098098;28;20197;-87
2023/06/17 07:55:03;;;;;;;8.40;6.70;;;21.50;99.90;;;;;;5098517;28;20225;-86
2023/06/17 07:57:37;;;;;;;7.90;6.60;;;21.60;99.90;;;;;;5097542;28;20189;-86
2023/06/17 08:00:13;;;;;;;7.97;6.60;;;21.80;99.90;;;;;;5077881;28;20270;-86
2023/06/17 08:02:40;;;;;;;7.97;6.80;;;21.90;99.90;;;;;;5094358;28;20190;-87
2023/06/17 08:05:09;;;;;;;7.20;6.50;;;22.10;99.90;;;;;;5094011;28;20213;-82
2023/06/17 08:07:36;;;;;;;7.83;6.90;;;22.30;99.90;;;;;;5095759;28;20186;-86
2023/06/17 08:10:04;;;;;;;7.63;6.83;;;22.40;99.90;;;;;;5077166;28;20252;-85
2023/06/17 08:12:35;;;;;;;7.63;6.77;;;22.50;99.90;;;;;;5094133;28;20200;-85
2023/06/17 08:15:02;;;;;;;8.60;6.63;;;22.60;99.90;;;;;;5077835;28;20221;-85
2023/06/17 08:17:30;;;;;;;8.73;7.10;;;22.60;99.90;;;;;;5077332;28;20482;-85
2023/06/17 08:19:57;;;;;;;8.57;7.43;;;22.60;99.90;;;;;;5095047;28;20681;-84
2023/06/17 08:22:25;;;;;;;8.30;7.30;;;22.20;99.90;;;;;;5094398;28;20727;-86
2023/06/17 08:24:53;;;;;;;8.43;6.90;;;22.10;99.90;;;;;;5078025;28;20209;-86
2023/06/17 08:27:20;;;;;;;9.90;7.30;;;22.10;99.90;;;;;;5094507;28;20239;-85
2023/06/17 08:29:47;;;;;;;8.20;6.37;;;22.50;99.90;;;;;;5093776;28;20713;-85
2023/06/17 08:32:14;;;;;;;8.68;7.10;;;23.20;99.90;;;;;;5093602;28;20251;-85
2023/06/17 08:34:41;;;;;;;7.88;6.78;;;23.60;99.90;;;;;;5094993;28;20181;-87
2023/06/17 08:37:08;;;;;;;8.43;6.90;;;23.60;99.90;;;;;;5093527;28;20189;-85
2023/06/17 08:39:39;;;;;;;7.88;6.78;;;23.40;99.90;;;;;;5093233;28;20706;-86
2023/06/17 08:42:08;;;;;;;9.65;7.38;;;23.20;99.90;;;;;;5093286;28;20258;-86
2023/06/17 08:44:48;;;;;;;9.27;7.30;;;23.20;99.90;;;;;;5094676;28;20310;-86
2023/06/17 08:47:16;;;;;;;7.93;6.93;;;22.90;99.90;;;;;;5093228;28;20197;-86
2023/06/17 08:49:44;;;;;;;8.20;7.20;;;22.80;99.90;;;;;;5077386;28;20217;-87
2023/06/17 08:52:13;;;;;;;7.67;6.67;;;22.90;99.90;;;;;;5092674;28;20489;-85
2023/06/17 08:54:41;;;;;;;6.75;6.05;;;23.20;99.90;;;;;;5093465;28;20244;-84
2023/06/17 08:57:12;;;;;;;7.10;6.40;;;23.80;99.90;;;;;;5076690;28;20197;-84
2023/06/17 08:59:41;;;;;;;7.28;6.22;;;24.10;99.90;;;;;;5076261;28;20292;-88
2023/06/17 09:02:10;;;;;;;7.13;5.90;;;24.20;99.90;;;;;;5092722;28;20579;-85
2023/06/17 09:04:38;;;;;;;6.90;5.78;;;24.60;99.90;;;;;;5092557;28;20579;-86
2023/06/17 09:07:07;;;;;;;7.18;6.28;;;25.00;99.90;;;;;;5092818;28;20193;-85
2023/06/17 09:09:34;;;;;;;8.90;6.07;;;25.50;99.90;;;;;;5092422;28;20264;-85
2023/06/17 09:12:05;;;;;;;7.00;6.20;;;25.70;99.90;;;;;;5092806;28;20190;-87
2023/06/17 09:14:33;;;;;;;6.88;6.07;;;25.90;99.90;;;;;;5092323;28;20280;-86
2023/06/17 09:17:02;;;;;;;7.45;6.35;;;25.90;99.90;;;;;;5094288;28;20246;-86
2023/06/17 09:19:31;;;;;;;8.73;6.25;;;25.70;99.90;;;;;;5078163;28;20539;-84
2023/06/17 09:22:08;;;;;;;7.65;6.50;;;26.10;99.90;;;;;;5094289;28;20193;-87
2023/06/17 09:24:42;;;;;;;7.45;6.22;;;26.30;99.90;;;;;;5092533;28;20292;-85
2023/06/17 09:27:20;;;;;;;7.32;5.95;;;26.50;99.90;;;;;;5092507;28;20190;-85
2023/06/17 09:29:48;;;;;;;7.30;6.38;;;26.50;99.90;;;;;;5092548;28;20229;-85
2023/06/17 09:32:15;;;;;;;7.20;6.40;;;26.20;99.90;;;;;;5075350;28;20300;-85
2023/06/17 09:34:48;;;;;;;8.60;6.30;;;26.00;99.90;;;;;;5075344;28;20217;-85
2023/06/17 09:37:15;;;;;;;9.55;6.47;;;26.50;99.90;;;;;;5092158;28;20239;-84
2023/06/17 09:39:44;;;;;;;7.07;6.38;;;26.80;99.90;;;;;;5092218;28;20260;-86
2023/06/17 09:42:11;;;;;;;7.75;5.55;;;27.10;99.90;;;;;;5075578;28;20197;-85
2023/06/17 09:44:39;;;;;;;8.73;6.60;;;27.00;99.90;;;;;;5092977;28;20255;-87
2023/06/17 09:47:11;;;;;;;6.93;6.22;;;26.80;99.90;;;;;;5092036;28;20220;-82
2023/06/17 09:49:38;;;;;;;7.50;6.10;;;26.60;99.90;;;;;;5092155;28;20225;-85
2023/06/17 09:52:08;;;;;;;7.38;6.57;;;26.50;99.90;;;;;;5093174;28;20276;-86
2023/06/17 09:54:36;;;;;;;7.57;6.55;;;26.30;99.90;;;;;;5075454;28;20197;-86
2023/06/17 09:57:07;;;;;;;8.52;6.63;;;26.80;99.90;;;;;;5075251;28;20200;-85
2023/06/17 09:59:35;;;;;;;7.38;6.68;;;27.00;99.90;;;;;;5075591;28;20208;-85
2023/06/17 10:02:03;;;;;;;7.80;6.20;;;27.30;99.90;;;;;;5075121;28;20193;-85
2023/06/17 10:04:30;;;;;;;8.00;7.20;;;27.40;99.90;;;;;;5092265;28;20657;-86
2023/06/17 10:06:59;;;;;;;8.07;7.28;;;26.60;99.90;;;;;;5092782;28;20208;-86
2023/06/17 10:09:27;;;;;;;8.60;7.63;;;26.50;99.90;;;;;;5074907;28;20229;-86
2023/06/17 10:11:57;;;;;;;7.78;6.82;;;26.20;99.90;;;;;;5093215;28;20590;-85
2023/06/17 10:14:33;;;;;;;7.57;6.32;;;26.00;99.90;;;;;;5092338;28;20676;-86
2023/06/17 10:17:03;;;;;;;8.15;7.20;;;25.80;99.90;;;;;;5091478;28;20670;-85
2023/06/17 10:19:33;;;;;;;7.80;7.00;;;25.40;99.90;;;;;;5091270;28;20197;-85
2023/06/17 10:22:04;;;;;;;9.43;6.82;;;25.50;99.90;;;;;;5074700;28;20193;-86
2023/06/17 10:24:32;;;;;;;6.82;6.13;;;25.20;99.90;;;;;;5074274;28;20247;-86
2023/06/17 10:27:04;;;;;;;8.23;7.07;;;25.00;99.90;;;;;;5091115;28;20633;-85
2023/06/17 10:29:32;;;;;;;8.80;7.00;;;25.10;99.90;;;;;;5074377;28;20221;-85
2023/06/17 10:32:25;;;;;;;7.50;6.72;;;24.90;99.90;;;;;;5092599;28;20642;-87
2023/06/17 10:35:09;;;;;;;8.68;6.70;;;24.60;99.90;;;;;;5091438;28;20217;-85
2023/06/17 10:37:41;;;;;;;7.57;6.78;;;24.40;99.90;;;;;;5092542;28;20208;-86
2023/06/17 10:40:25;;;;;;;7.05;6.32;;;23.80;99.90;;;;;;5074448;28;20232;-86
2023/06/17 10:42:58;;;;;;;7.55;6.50;;;23.90;99.90;;;;;;5092613;28;20645;-84
2023/06/17 10:45:29;;;;;;;6.72;6.03;;;24.40;99.90;;;;;;5091118;28;20646;-85
2023/06/17 10:48:16;;;;;;;7.75;7.00;;;24.70;99.90;;;;;;5092396;28;20196;-85
2023/06/17 10:50:46;;;;;;;7.60;6.80;;;24.70;99.90;;;;;;5090902;28;20247;-88
2023/06/17 10:53:17;;;;;;;8.50;7.50;;;24.40;99.90;;;;;;5074695;28;20189;-85
2023/06/17 10:55:45;;;;;;;7.72;6.93;;;24.30;99.90;;;;;;5091005;28;20228;-87
2023/06/17 10:58:12;;;;;;;9.45;7.80;;;24.10;99.90;;;;;;5091240;28;20274;-85
2023/06/17 11:00:40;;;;;;;8.48;7.40;;;23.70;99.90;;;;;;5092128;28;20672;-86
2023/06/17 11:03:08;;;;;;;9.30;7.68;;;23.60;99.90;;;;;;5092282;28;20556;-86
2023/06/17 11:05:36;;;;;;;11.50;8.85;;;23.50;99.90;;;;;;5092319;28;20304;-86
2023/06/17 11:08:04;;;;;;;10.55;8.02;;;23.20;99.90;;;;;;5091394;28;20216;-86
2023/06/17 11:10:31;;;;;;;9.35;8.35;;;23.00;99.90;;;;;;5074441;28;20289;-87
2023/06/17 11:12:58;;;;;;;8.90;7.80;;;22.90;99.90;;;;;;5074989;28;20212;-86
2023/06/17 11:15:25;;;;;;;9.85;7.60;;;22.90;99.90;;;;;;5094180;28;20609;-86
2023/06/17 11:18:02;;;;;;;12.30;8.23;;;23.00;99.90;;;;;;5094949;28;20185;-86
2023/06/17 11:20:35;;;;;;;8.75;7.82;;;22.90;99.90;;;;;;5094721;28;20217;-86
2023/06/17 11:23:04;;;;;;;9.07;7.70;;;23.00;99.90;;;;;;5096548;28;20229;-86
2023/06/17 11:25:32;;;;;;;10.33;8.70;;;22.90;99.90;;;;;;5094730;28;20217;-85
2023/06/17 11:28:11;;;;;;;10.73;8.43;;;22.90;99.90;;;;;;5079641;28;20602;-86
2023/06/17 11:30:40;;;;;;;10.40;8.33;;;22.90;99.90;;;;;;5094933;28;20220;-86
2023/06/17 11:33:08;;;;;;;10.47;8.77;;;22.80;99.90;;;;;;5095976;28;20276;-85
2023/06/17 11:35:37;;;;;;;9.97;8.80;;;22.80;99.90;;;;;;5094588;28;20213;-86
2023/06/17 11:38:05;;;;;;;10.87;8.87;;;22.40;99.90;;;;;;5077955;28;20710;-85
2023/06/17 11:40:32;;;;;;;10.83;9.17;;;22.50;99.90;;;;;;5094788;28;20619;-85
2023/06/17 11:43:00;;;;;;;9.50;8.37;;;22.60;99.90;;;;;;5077712;28;20247;-85
2023/06/17 11:45:30;;;;;;;11.90;9.23;;;22.70;99.90;;;;;;5094049;28;20221;-86
2023/06/17 11:47:57;;;;;;;10.53;9.07;;;22.80;99.90;;;;;;5095537;28;20189;-86
2023/06/17 11:50:29;;;;;;;11.60;8.63;;;22.80;99.90;;;;;;5094144;28;20221;-85
2023/06/17 11:52:59;;;;;;;9.90;8.73;;;22.80;99.90;;;;;;5094340;28;20235;-85
2023/06/17 11:55:32;;;;;;;10.98;9.50;;;22.90;99.90;;;;;;5077072;28;20252;-85
2023/06/17 11:58:04;;;;;;;11.63;9.57;;;23.20;99.90;;;;;;5095446;28;20186;-86
2023/06/17 12:00:36;;;;;;;11.95;9.70;;;23.40;99.90;;;;;;5094041;28;20218;-85
2023/06/17 12:03:03;;;;;;;10.93;9.65;;;23.50;99.90;;;;;;5094084;28;20197;-86
2023/06/17 12:05:31;;;;;;;11.68;9.30;;;23.80;99.90;;;;;;5094202;28;20628;-85
2023/06/17 12:08:02;;;;;;;11.75;9.60;;;24.10;99.90;;;;;;5077543;28;20292;-86
2023/06/17 12:10:29;;;;;;;11.10;9.90;;;24.40;99.90;;;;;;5077044;28;20229;-85
2023/06/17 12:12:57;;;;;;;11.75;10.07;;;24.60;99.90;;;;;;5095296;28;20693;-84
2023/06/17 12:15:30;;;;;;;10.73;9.63;;;24.40;99.90;;;;;;5095240;28;20271;-84
2023/06/17 12:18:13;;;;;;;11.23;9.63;;;24.70;99.90;;;;;;5093806;28;20197;-86
2023/06/17 12:20:50;;;;;;;11.40;10.20;;;25.00;99.90;;;;;;5093891;28;20217;-85
2023/06/17 12:23:17;;;;;;;10.20;9.20;;;25.30;99.90;;;;;;5094125;28;20197;-86
2023/06/17 12:25:46;;;;;;;11.65;9.68;;;25.60;99.90;;;;;;5095741;28;20730;-83
2023/06/17 12:28:14;;;;;;;10.82;9.48;;;25.90;99.90;;;;;;5094929;28;20258;-85
2023/06/17 12:30:40;;;;;;;10.45;9.35;;;26.10;99.90;;;;;;5077120;28;20233;-86
2023/06/17 12:33:07;;;;;;;11.23;10.02;;;26.20;99.90;;;;;;5093859;28;20201;-85
2023/06/17 12:35:35;;;;;;;12.40;9.90;;;26.20;99.90;;;;;;5095269;28;20209;-85
2023/06/17 12:38:02;;;;;;;10.90;9.80;;;26.00;99.90;;;;;;5095269;28;20197;-83
2023/06/17 12:40:29;;;;;;;10.68;9.57;;;25.80;99.90;;;;;;5094492;28;20286;-83
2023/06/17 12:42:56;;;;;;;11.90;9.88;;;26.00;99.90;;;;;;5094999;28;20269;-85
2023/06/17 12:45:24;;;;;;;10.55;9.45;;;26.60;99.90;;;;;;5093583;28;20237;-86
2023/06/17 12:47:51;;;;;;;10.68;9.60;;;27.20;99.90;;;;;;5093564;28;20200;-84